createdAt,value
2023-03-20T00:02:03.879Z,6.28
2023-03-20T00:04:33.211Z,5.40
2023-03-20T00:07:01.561Z,4.80
2023-03-20T00:09:29.498Z,4.82
2023-03-20T00:11:57.498Z,6.32
2023-03-20T00:14:26.358Z,6.05
2023-03-20T00:16:54.504Z,4.80
2023-03-20T00:19:24.262Z,7.65
2023-03-20T00:21:54.842Z,4.50
2023-03-20T00:24:23.680Z,3.83
2023-03-20T00:26:52.908Z,4.88
2023-03-20T00:29:24.090Z,6.07
2023-03-20T00:31:53.977Z,5.57
2023-03-20T00:34:25.786Z,5.95
2023-03-20T00:36:56.276Z,7.45
2023-03-20T00:39:24.779Z,3.95
2023-03-20T00:41:55.961Z,6.28
2023-03-20T00:44:27.821Z,5.25
2023-03-20T00:46:57.928Z,5.05
2023-03-20T00:49:28.980Z,4.78
2023-03-20T00:51:59.080Z,4.05
2023-03-20T00:54:27.050Z,5.55
2023-03-20T00:56:59.054Z,4.70
2023-03-20T00:59:31.371Z,4.35
2023-03-20T01:01:59.835Z,5.00
2023-03-20T01:04:35.746Z,5.03
2023-03-20T01:07:05.448Z,5.22
2023-03-20T01:09:33.797Z,4.28
2023-03-20T01:12:03.008Z,4.88
2023-03-20T01:14:30.991Z,5.25
2023-03-20T01:17:00.381Z,5.57
2023-03-20T01:19:28.456Z,4.57
2023-03-20T01:21:56.686Z,4.78
2023-03-20T01:24:26.227Z,6.13
2023-03-20T01:26:54.703Z,5.28
2023-03-20T01:29:24.537Z,4.65
2023-03-20T01:31:53.877Z,5.68
2023-03-20T01:34:23.927Z,6.35
2023-03-20T01:36:54.586Z,4.85
2023-03-20T01:39:24.494Z,4.72
2023-03-20T01:41:54.762Z,4.25
2023-03-20T01:44:25.633Z,4.90
2023-03-20T01:46:59.995Z,4.25
2023-03-20T01:50:05.199Z,4.25
2023-03-20T01:52:33.279Z,4.90
2023-03-20T01:55:01.336Z,3.45
2023-03-20T01:57:31.887Z,4.15
2023-03-20T02:00:05.539Z,4.40
2023-03-20T02:02:45.161Z,3.95
2023-03-20T02:05:19.989Z,3.50
2023-03-20T02:07:53.957Z,3.67
2023-03-20T02:10:22.090Z,3.08
2023-03-20T02:13:01.720Z,3.53
2023-03-20T02:15:37.358Z,4.05
2023-03-20T02:18:13.292Z,3.42
2023-03-20T02:21:01.596Z,2.40
2023-03-20T02:24:12.412Z,5.22
2023-03-20T02:26:51.714Z,4.82
2023-03-20T02:30:00.547Z,3.08
2023-03-20T02:33:08.112Z,1.75
2023-03-20T02:36:08.131Z,3.47
2023-03-20T02:39:14.139Z,3.30
2023-03-20T02:41:49.382Z,2.30
2023-03-20T02:44:23.999Z,4.07
2023-03-20T02:47:04.234Z,3.90
2023-03-20T02:49:52.981Z,3.75
2023-03-20T02:52:27.112Z,2.28
2023-03-20T02:55:07.086Z,4.72
2023-03-20T02:57:42.847Z,3.55
2023-03-20T03:00:16.779Z,3.80
2023-03-20T03:02:51.552Z,3.00
2023-03-20T03:05:24.920Z,4.85
2023-03-20T03:10:27.250Z,3.65
2023-03-20T03:12:57.475Z,4.35
2023-03-20T03:15:30.548Z,2.33
2023-03-20T03:18:03.192Z,3.83
2023-03-20T03:20:34.201Z,3.63
2023-03-20T03:23:02.937Z,3.30
2023-03-20T03:25:36.270Z,2.40
2023-03-20T03:28:10.032Z,3.08
2023-03-20T03:30:40.651Z,2.30
2023-03-20T03:33:17.124Z,2.45
2023-03-20T03:35:46.477Z,2.35
2023-03-20T03:38:29.639Z,3.90
2023-03-20T03:41:14.452Z,2.65
2023-03-20T03:43:46.611Z,3.90
2023-03-20T03:46:20.433Z,3.13
2023-03-20T03:48:52.848Z,3.33
2023-03-20T03:51:24.797Z,2.58
2023-03-20T03:54:09.065Z,2.78
2023-03-20T03:56:41.422Z,2.75
2023-03-20T03:59:12.938Z,4.00
2023-03-20T04:01:44.412Z,3.25
2023-03-20T04:04:16.876Z,2.28
2023-03-20T04:06:45.118Z,2.53
2023-03-20T04:09:13.050Z,2.63
2023-03-20T04:11:42.455Z,4.28
2023-03-20T04:14:11.588Z,3.30
2023-03-20T04:16:39.835Z,2.97
2023-03-20T04:19:07.793Z,4.85
2023-03-20T04:21:35.761Z,2.60
2023-03-20T04:24:03.683Z,2.63
2023-03-20T04:26:31.950Z,2.70
2023-03-20T04:29:01.741Z,2.50
2023-03-20T04:31:48.869Z,2.58
2023-03-20T04:34:39.647Z,3.67
2023-03-20T04:37:27.501Z,2.58
2023-03-20T04:40:02.297Z,4.40
2023-03-20T04:42:31.121Z,2.50
2023-03-20T04:45:05.643Z,3.88
2023-03-20T04:47:33.889Z,2.50
2023-03-20T04:50:02.594Z,2.30
2023-03-20T04:52:32.210Z,2.25
2023-03-20T04:55:00.222Z,3.60
2023-03-20T04:57:28.682Z,4.90
2023-03-20T04:59:56.657Z,3.83
2023-03-20T05:02:27.173Z,2.30
2023-03-20T05:04:55.332Z,2.17
2023-03-20T05:07:25.556Z,4.68
2023-03-20T05:10:01.679Z,2.63
2023-03-20T05:12:32.446Z,2.83
2023-03-20T05:15:19.117Z,3.40
2023-03-20T05:18:03.379Z,3.55
2023-03-20T05:20:54.173Z,2.60
2023-03-20T05:23:31.493Z,3.10
2023-03-20T05:26:18.032Z,2.95
2023-03-20T05:29:04.655Z,3.35
2023-03-20T05:31:43.034Z,2.47
2023-03-20T05:34:18.984Z,3.08
2023-03-20T05:37:05.608Z,4.47
2023-03-20T05:39:52.246Z,4.35
2023-03-20T05:42:49.592Z,4.10
2023-03-20T05:45:27.515Z,2.60
2023-03-20T05:48:29.810Z,2.50
2023-03-20T05:51:17.708Z,3.15
2023-03-20T05:53:56.393Z,2.65
2023-03-20T05:56:42.292Z,2.17
2023-03-20T05:59:28.278Z,3.08
2023-03-20T06:02:22.503Z,3.65
2023-03-20T06:04:59.750Z,3.58
2023-03-20T06:07:37.896Z,2.60
2023-03-20T06:10:12.678Z,3.38
2023-03-20T06:12:40.777Z,3.22
2023-03-20T06:15:10.381Z,3.20
2023-03-20T06:17:46.315Z,3.17
2023-03-20T06:20:16.156Z,3.15
2023-03-20T06:22:46.272Z,2.55
2023-03-20T06:25:17.339Z,4.60
2023-03-20T06:27:47.446Z,3.38
2023-03-20T06:30:16.591Z,3.15
2023-03-20T06:32:46.515Z,3.58
2023-03-20T06:35:15.287Z,4.55
2023-03-20T06:37:48.280Z,4.88
2023-03-20T06:40:22.460Z,5.32
2023-03-20T06:42:50.394Z,4.38
2023-03-20T06:45:19.233Z,5.03
2023-03-20T06:47:59.325Z,5.72
2023-03-20T06:50:27.331Z,5.45
2023-03-20T06:52:57.321Z,4.63
2023-03-20T06:55:54.793Z,6.30
2023-03-20T06:58:22.888Z,7.32
2023-03-20T07:00:54.669Z,6.72
2023-03-20T07:03:22.663Z,7.38
2023-03-20T07:05:51.869Z,5.60
2023-03-20T07:08:22.503Z,10.75
2023-03-20T07:10:51.760Z,5.88
2023-03-20T07:13:20.610Z,6.57
2023-03-20T07:16:03.408Z,5.70
2023-03-20T07:18:37.213Z,5.47
2023-03-20T07:21:08.037Z,4.88
2023-03-20T07:23:37.863Z,6.72
2023-03-20T07:26:06.700Z,5.38
2023-03-20T07:28:35.363Z,4.03
2023-03-20T07:31:25.733Z,5.38
2023-03-20T07:34:03.128Z,5.38
2023-03-20T07:36:31.156Z,5.07
2023-03-20T07:39:00.719Z,4.53
2023-03-20T07:41:30.942Z,5.22
2023-03-20T07:44:04.039Z,4.35
2023-03-20T07:46:47.057Z,4.82
2023-03-20T07:49:18.302Z,4.82
2023-03-20T07:51:47.290Z,5.10
2023-03-20T07:54:17.584Z,6.30
2023-03-20T07:56:47.024Z,7.47
2023-03-20T07:59:15.564Z,5.47
2023-03-20T08:01:43.482Z,4.68
2023-03-20T08:04:11.511Z,4.72
2023-03-20T08:06:40.909Z,4.63
2023-03-20T08:09:09.003Z,4.65
2023-03-20T08:11:38.426Z,3.55
2023-03-20T08:14:06.462Z,3.35
2023-03-20T08:16:34.447Z,3.85
2023-03-20T08:19:03.223Z,3.40
2023-03-20T08:30:51.329Z,4.35
2023-03-20T08:33:22.130Z,4.13
2023-03-20T08:35:58.341Z,4.25
2023-03-20T08:38:26.604Z,4.32
2023-03-20T08:40:54.900Z,4.43
2023-03-20T08:43:24.768Z,3.88
2023-03-20T08:45:53.383Z,4.70
2023-03-20T08:48:22.271Z,4.30
2023-03-20T08:50:50.518Z,3.70
2023-03-20T08:53:21.009Z,3.90
2023-03-20T08:55:50.790Z,4.72
2023-03-20T08:58:19.797Z,3.88
2023-03-20T09:00:49.127Z,3.85
2023-03-20T09:03:20.102Z,3.25
2023-03-20T09:05:49.751Z,3.05
2023-03-20T09:08:17.765Z,4.30
2023-03-20T09:10:47.654Z,4.45
2023-03-20T09:13:26.842Z,3.38
2023-03-20T09:15:58.214Z,4.90
2023-03-20T09:18:27.578Z,2.97
2023-03-20T09:20:56.500Z,3.75
2023-03-20T09:23:25.115Z,3.65
2023-03-20T09:25:53.211Z,4.47
2023-03-20T09:28:21.398Z,3.03
2023-03-20T09:30:49.551Z,3.63
2023-03-20T09:33:19.642Z,2.30
2023-03-20T09:35:47.788Z,2.58
2023-03-20T09:38:15.779Z,2.20
2023-03-20T09:40:52.551Z,2.28
2023-03-20T09:43:51.020Z,2.90
2023-03-20T09:46:31.931Z,2.83
2023-03-20T09:49:08.744Z,2.88
2023-03-20T09:51:43.008Z,2.25
2023-03-20T09:54:19.200Z,2.13
2023-03-20T09:56:47.292Z,1.90
2023-03-20T09:59:17.372Z,1.70
2023-03-20T10:01:50.256Z,2.47
2023-03-20T10:04:20.495Z,1.88
2023-03-20T10:06:49.160Z,2.00
2023-03-20T10:09:19.385Z,2.60
2023-03-20T10:12:22.468Z,2.00
2023-03-20T10:14:59.434Z,1.42
2023-03-20T10:17:49.441Z,1.40
2023-03-20T10:20:27.293Z,1.40
2023-03-20T10:22:59.158Z,2.55
2023-03-20T10:25:32.001Z,1.30
2023-03-20T10:28:01.596Z,2.30
2023-03-20T10:30:52.207Z,1.58
2023-03-20T10:33:38.413Z,1.98
2023-03-20T10:36:22.562Z,1.10
2023-03-20T10:38:55.832Z,1.58
2023-03-20T10:41:30.045Z,1.35
2023-03-20T10:43:59.923Z,1.10
2023-03-20T10:46:31.845Z,1.40
2023-03-20T10:49:04.930Z,1.27
2023-03-20T10:51:43.216Z,1.00
2023-03-20T10:54:22.956Z,1.00
2023-03-20T10:56:56.408Z,1.27
2023-03-20T10:59:27.317Z,1.48
2023-03-20T11:01:55.581Z,1.30
2023-03-20T11:04:23.560Z,0.98
2023-03-20T11:07:00.904Z,1.40
2023-03-20T11:09:30.405Z,0.77
2023-03-20T11:11:59.905Z,0.80
2023-03-20T11:14:33.035Z,0.98
2023-03-20T11:17:03.898Z,0.70
2023-03-20T11:19:35.723Z,0.90
2023-03-20T11:22:09.721Z,0.80
2023-03-20T11:24:43.347Z,0.68
2023-03-20T11:27:13.475Z,1.52
2023-03-20T11:29:45.925Z,0.88
2023-03-20T11:32:26.842Z,0.70
2023-03-20T11:34:57.351Z,0.90
2023-03-20T11:37:29.459Z,1.13
2023-03-20T11:40:01.934Z,0.75
2023-03-20T11:42:31.580Z,0.87
2023-03-20T11:45:03.535Z,0.80
2023-03-20T11:47:34.886Z,0.90
2023-03-20T11:50:05.597Z,1.08
2023-03-20T11:52:37.710Z,1.20
2023-03-20T11:55:13.267Z,2.08
2023-03-20T11:57:46.816Z,0.82
2023-03-20T12:02:47.518Z,0.90
2023-03-20T12:05:29.375Z,1.23
2023-03-20T12:08:02.732Z,0.85
2023-03-20T12:13:03.901Z,1.67
2023-03-20T12:15:35.411Z,0.70
2023-03-20T12:18:07.226Z,2.78
2023-03-20T12:20:41.490Z,1.00
2023-03-20T12:23:15.888Z,1.52
2023-03-20T12:25:51.505Z,1.20
2023-03-20T12:28:26.818Z,0.60
2023-03-20T12:31:07.271Z,2.10
2023-03-20T12:33:45.109Z,1.00
2023-03-20T12:36:19.620Z,1.45
2023-03-20T12:38:49.728Z,1.92
2023-03-20T12:41:25.284Z,0.90
2023-03-20T12:44:23.177Z,1.08
2023-03-20T12:46:59.962Z,1.05
2023-03-20T12:49:39.057Z,0.82
2023-03-20T12:52:14.330Z,1.58
2023-03-20T12:55:06.736Z,2.17
2023-03-20T12:57:43.592Z,0.95
2023-03-20T13:00:22.278Z,2.72
2023-03-20T13:03:03.004Z,1.83
2023-03-20T13:05:44.440Z,1.45
2023-03-20T13:08:43.547Z,1.40
2023-03-20T13:11:20.654Z,1.95
2023-03-20T13:13:54.939Z,1.98
2023-03-20T13:16:31.016Z,3.75
2023-03-20T13:19:07.277Z,3.30
2023-03-20T13:21:42.895Z,1.30
2023-03-20T13:24:24.021Z,2.20
2023-03-20T13:27:01.087Z,1.58
2023-03-20T13:29:41.156Z,1.20
2023-03-20T13:32:18.326Z,1.63
2023-03-20T13:35:06.833Z,1.08
2023-03-20T13:37:39.885Z,1.17
2023-03-20T13:40:17.939Z,1.10
2023-03-20T13:42:54.239Z,1.25
2023-03-20T13:45:32.261Z,1.05
2023-03-20T13:48:06.461Z,1.02
2023-03-20T13:50:45.905Z,1.25
2023-03-20T13:53:24.565Z,0.90
2023-03-20T13:56:01.043Z,3.10
2023-03-20T13:58:40.578Z,0.80
2023-03-20T14:01:15.838Z,7.22
2023-03-20T14:03:46.715Z,1.13
2023-03-20T14:06:19.903Z,1.92
2023-03-20T14:08:54.879Z,0.80
2023-03-20T14:11:35.150Z,1.00
2023-03-20T14:14:14.027Z,1.55
2023-03-20T14:16:42.925Z,1.00
2023-03-20T14:19:19.087Z,1.33
2023-03-20T14:21:48.413Z,1.08
2023-03-20T14:24:19.540Z,1.60
2023-03-20T14:26:51.467Z,0.98
2023-03-20T14:29:34.832Z,0.90
2023-03-20T14:32:23.988Z,1.58
2023-03-20T14:34:54.464Z,1.05
2023-03-20T14:37:31.159Z,1.67
2023-03-20T14:40:04.904Z,2.28
2023-03-20T14:42:41.080Z,2.00
2023-03-20T14:45:44.458Z,1.42
2023-03-20T14:48:27.866Z,1.27
2023-03-20T14:51:08.197Z,2.30
2023-03-20T14:53:36.425Z,1.60
2023-03-20T14:56:10.172Z,1.60
2023-03-20T14:59:03.734Z,1.27
2023-03-20T15:01:55.362Z,1.25
2023-03-20T15:04:39.143Z,1.17
2023-03-20T15:07:14.882Z,1.63
2023-03-20T15:09:46.211Z,1.67
2023-03-20T15:12:17.701Z,1.55
2023-03-20T15:14:48.389Z,1.92
2023-03-20T15:17:23.832Z,1.45
2023-03-20T15:19:52.108Z,1.60
2023-03-20T15:22:21.759Z,1.15
2023-03-20T15:24:53.801Z,2.33
2023-03-20T15:27:22.566Z,4.28
2023-03-20T15:29:53.176Z,3.45
2023-03-20T15:32:24.801Z,1.95
2023-03-20T15:34:53.392Z,2.58
2023-03-20T15:37:24.620Z,2.22
2023-03-20T15:39:56.101Z,3.30
2023-03-20T15:42:27.609Z,1.23
2023-03-20T15:44:56.745Z,1.63
2023-03-20T15:47:26.847Z,1.13
2023-03-20T15:49:58.190Z,1.92
2023-03-20T15:52:31.411Z,4.47
2023-03-20T15:55:05.765Z,1.73
2023-03-20T15:57:36.847Z,2.80
2023-03-20T16:00:07.027Z,2.33
2023-03-20T16:02:40.776Z,1.88
2023-03-20T16:05:13.095Z,3.67
2023-03-20T16:07:41.382Z,4.30
2023-03-20T16:10:19.581Z,3.50
2023-03-20T16:12:50.737Z,1.45
2023-03-20T16:15:20.465Z,2.00
2023-03-20T16:17:53.012Z,1.42
2023-03-20T16:20:21.715Z,3.87
2023-03-20T16:22:51.093Z,3.08
2023-03-20T16:25:20.110Z,2.90
2023-03-20T16:27:51.843Z,1.85
2023-03-20T16:30:23.274Z,2.65
2023-03-20T16:32:59.247Z,2.88
2023-03-20T16:35:31.039Z,1.63
2023-03-20T16:38:01.318Z,1.30
2023-03-20T16:40:34.157Z,1.63
2023-03-20T16:43:08.038Z,3.78
2023-03-20T16:45:36.986Z,1.35
2023-03-20T16:48:27.496Z,3.20
2023-03-20T16:51:01.079Z,1.58
2023-03-20T16:53:32.036Z,1.48
2023-03-20T16:56:04.970Z,1.33
2023-03-20T16:58:35.318Z,1.10
2023-03-20T17:01:06.193Z,1.80
2023-03-20T17:03:40.088Z,1.95
2023-03-20T17:06:11.377Z,3.53
2023-03-20T17:08:43.594Z,3.22
2023-03-20T17:11:14.471Z,2.88
2023-03-20T17:13:43.158Z,1.73
2023-03-20T17:16:16.828Z,1.92
2023-03-20T17:18:47.613Z,3.92
2023-03-20T17:21:15.831Z,1.33
2023-03-20T17:23:43.831Z,1.88
2023-03-20T17:26:12.755Z,4.95
2023-03-20T17:28:41.691Z,2.35
2023-03-20T17:31:13.900Z,5.50
2023-03-20T17:33:42.208Z,5.28
2023-03-20T17:36:17.040Z,7.72
2023-03-20T17:38:45.644Z,3.38
2023-03-20T17:41:15.659Z,6.43
2023-03-20T17:43:43.735Z,5.75
2023-03-20T17:46:19.806Z,7.20
2023-03-20T17:48:48.354Z,5.68
2023-03-20T17:51:17.780Z,3.15
2023-03-20T17:53:45.878Z,5.00
2023-03-20T17:56:15.328Z,4.75
2023-03-20T17:58:45.151Z,3.88
2023-03-20T18:01:14.279Z,6.45
2023-03-20T18:03:42.883Z,5.47
2023-03-20T18:06:19.585Z,4.05
2023-03-20T18:08:47.589Z,2.47
2023-03-20T18:11:15.701Z,3.47
2023-03-20T18:13:43.824Z,3.10
2023-03-20T18:16:17.377Z,3.03
2023-03-20T18:18:46.198Z,4.15
2023-03-20T18:21:15.032Z,4.07
2023-03-20T18:23:45.017Z,3.20
2023-03-20T18:26:19.428Z,4.07
2023-03-20T18:28:47.855Z,3.47
2023-03-20T18:31:18.928Z,4.55
2023-03-20T18:33:47.960Z,4.65
2023-03-20T18:36:17.803Z,3.03
2023-03-20T18:38:47.978Z,3.40
2023-03-20T18:41:16.440Z,3.83
2023-03-20T18:43:44.652Z,4.38
2023-03-20T18:46:14.581Z,5.00
2023-03-20T18:48:42.644Z,4.70
2023-03-20T18:51:10.740Z,5.63
2023-03-20T18:53:38.678Z,3.88
2023-03-20T18:56:13.985Z,4.97
2023-03-20T18:58:42.066Z,5.13
2023-03-20T19:01:11.291Z,3.45
2023-03-20T19:03:42.846Z,6.55
2023-03-20T19:06:15.935Z,9.90
2023-03-20T19:08:44.559Z,6.03
2023-03-20T19:11:17.301Z,8.43
2023-03-20T19:13:49.556Z,9.43
2023-03-20T19:16:22.356Z,8.20
2023-03-20T19:18:51.083Z,10.05
2023-03-20T19:21:19.335Z,10.13
2023-03-20T19:23:47.293Z,9.93
2023-03-20T19:26:19.325Z,9.15
2023-03-20T19:28:48.763Z,9.52
2023-03-20T19:31:17.248Z,7.57
2023-03-20T19:33:45.631Z,8.20
2023-03-20T19:36:24.396Z,6.20
2023-03-20T19:38:52.575Z,7.43
2023-03-20T19:41:22.027Z,6.30
2023-03-20T19:43:53.608Z,6.53
2023-03-20T19:49:18.389Z,7.15
2023-03-20T19:51:47.363Z,7.20
2023-03-20T19:54:15.484Z,6.32
2023-03-20T19:56:44.749Z,5.85
2023-03-20T19:59:16.243Z,6.70
2023-03-20T20:01:48.399Z,5.00
2023-03-20T20:04:18.172Z,4.93
2023-03-20T20:06:47.364Z,6.82
2023-03-20T20:09:16.049Z,8.55
2023-03-20T20:11:45.806Z,6.05
2023-03-20T20:14:15.183Z,6.15
2023-03-20T20:16:45.363Z,3.85
2023-03-20T20:19:13.467Z,4.97
2023-03-20T20:24:29.840Z,4.68
2023-03-20T20:27:15.916Z,4.63
2023-03-20T20:29:49.146Z,3.97
2023-03-20T20:32:17.690Z,6.03
2023-03-20T20:35:34.918Z,7.68
2023-03-20T20:38:21.193Z,4.47
2023-03-20T20:40:26.556Z,5.57
2023-03-20T20:43:01.452Z,9.02
2023-03-20T20:45:31.685Z,4.78
2023-03-20T20:48:00.562Z,7.93
2023-03-20T20:50:31.005Z,6.55
2023-03-20T20:52:59.670Z,4.97
2023-03-20T20:55:27.980Z,4.13
2023-03-20T20:57:57.827Z,3.30
2023-03-20T21:00:41.364Z,4.88
2023-03-20T21:03:15.023Z,4.57
2023-03-20T21:05:43.611Z,2.95
2023-03-20T21:08:13.910Z,5.38
2023-03-20T21:10:44.852Z,4.03
2023-03-20T21:13:14.384Z,3.53
2023-03-20T21:15:43.247Z,3.67
2023-03-20T21:18:11.832Z,3.83
2023-03-20T21:20:39.890Z,4.43
2023-03-20T21:23:07.785Z,2.97
2023-03-20T21:25:40.595Z,4.30
2023-03-20T21:28:10.460Z,2.40
2023-03-20T21:30:54.567Z,3.95
2023-03-20T21:33:29.818Z,3.00
2023-03-20T21:35:57.898Z,3.72
2023-03-20T21:39:02.001Z,4.40
2023-03-20T21:41:16.272Z,2.45
2023-03-20T21:43:47.033Z,4.43
2023-03-20T21:58:17.601Z,5.32
2023-03-20T22:01:09.657Z,4.47
2023-03-20T22:03:11.925Z,2.90
2023-03-20T22:09:30.852Z,3.83
2023-03-20T22:17:45.668Z,2.53
2023-03-20T22:20:44.895Z,2.58
2023-03-20T22:28:56.773Z,3.30
2023-03-20T22:40:15.003Z,2.35
2023-03-20T22:42:48.967Z,4.22
2023-03-20T22:45:04.317Z,4.57
2023-03-20T22:47:32.784Z,2.42
2023-03-20T22:50:01.132Z,3.47
2023-03-20T22:52:47.566Z,2.95
2023-03-20T22:55:17.303Z,4.03
2023-03-20T22:57:59.519Z,4.20
2023-03-20T23:00:31.674Z,5.70
2023-03-20T23:03:15.256Z,3.40
2023-03-20T23:05:47.985Z,3.17
2023-03-20T23:08:19.561Z,4.93
2023-03-20T23:10:49.524Z,3.20
2023-03-20T23:13:18.571Z,4.20
2023-03-20T23:15:47.448Z,3.90
2023-03-20T23:18:16.018Z,4.55
2023-03-20T23:20:43.955Z,4.65
2023-03-20T23:23:11.920Z,6.28
2023-03-20T23:25:41.237Z,5.30
2023-03-20T23:28:10.767Z,3.80
2023-03-20T23:30:48.032Z,5.28
2023-03-20T23:33:17.732Z,4.00
2023-03-20T23:35:46.262Z,4.20
2023-03-20T23:38:14.180Z,4.57
2023-03-20T23:40:50.074Z,5.85
2023-03-20T23:43:18.635Z,4.88
2023-03-20T23:45:47.220Z,4.82
2023-03-20T23:48:16.094Z,5.03
2023-03-20T23:50:53.051Z,3.72
2023-03-20T23:53:21.724Z,5.35
2023-03-20T23:55:53.856Z,4.38
2023-03-20T23:58:22.727Z,5.70
